KBFI/BFI METAR and TAF weather

Enter ICAO airport designator
Station Type Date Time Source
KBFI METAR 2019/07/17 17:53 UTC NOAA

KBFI 171753Z 17011KT 10SM -RA SCT021 OVC029 19/12 A2989 RMK AO2 SLP121 P0000 60000 T01940117 10194 20167 58006


Station Type Date Time Source
KBFI Decoded METAR 2019/07/17 17:53 UTC NOAA

SEATTLE BOEING FIELD, WA, United States (KBFI) 47-33N 122-19W 4M
Jul 17, 2019 - 01:53 PM EDT / 2019.07.17 1753 UTC
Wind: from the S (170 degrees) at 13 MPH (11 KT):0
Visibility: 10 mile(s):0
Sky conditions: overcast
Weather: light rain
Precipitation last hour: A trace
Temperature: 66.9 F (19.4 C)
Dew Point: 53.1 F (11.7 C)
Relative Humidity: 61%
Pressure (altimeter): 29.89 in. Hg (1012 hPa)
Pressure tendency: 0.02 inches (0.6 hPa) lower than three hours ago
ob: KBFI 171753Z 17011KT 10SM -RA SCT021 OVC029 19/12 A2989 RMK AO2 SLP121 P0000 60000 T01940117 10194 20167 58006
cycle: 18

Station Type Date Time Source
KBFI TAF 2019/07/17 18:22 UTC NOAA

TAF KBFI 171720Z 1718/1818 18010G18KT P6SM -RA BKN025 OVC040
FM172200 22012G20KT P6SM -SHRA BKN025 BKN050
FM180400 VRB04KT P6SM VCSH BKN025 BKN050
FM181000 18006KT P6SM OVC025
FM181700 21006KT P6SM VCSH BKN035

Example: see airport list